sensor_id;sensor_type;location;lat;lon;timestamp;P1;durP1;ratioP1;P2;durP2;ratioP2
24826;SDS011;12910;57.690;11.974;2022-09-09T00:00:35;1.27;;;0.30;;
24826;SDS011;12910;57.690;11.974;2022-09-09T00:03:16;0.87;;;0.40;;
24826;SDS011;12910;57.690;11.974;2022-09-09T00:08:46;0.30;;;0.30;;
24826;SDS011;12910;57.690;11.974;2022-09-09T00:11:41;0.30;;;0.30;;
24826;SDS011;12910;57.690;11.974;2022-09-09T00:14:13;0.40;;;0.40;;
24826;SDS011;12910;57.690;11.974;2022-09-09T00:16:49;2.00;;;0.30;;
24826;SDS011;12910;57.690;11.974;2022-09-09T00:19:39;0.43;;;0.40;;
24826;SDS011;12910;57.690;11.974;2022-09-09T00:22:25;1.00;;;0.50;;
24826;SDS011;12910;57.690;11.974;2022-09-09T00:24:56;0.20;;;0.20;;
24826;SDS011;12910;57.690;11.974;2022-09-09T00:27:40;0.33;;;0.33;;
24826;SDS011;12910;57.690;11.974;2022-09-09T00:30:14;0.30;;;0.30;;
24826;SDS011;12910;57.690;11.974;2022-09-09T00:32:41;1.43;;;1.43;;
24826;SDS011;12910;57.690;11.974;2022-09-09T00:37:35;0.40;;;0.40;;
24826;SDS011;12910;57.690;11.974;2022-09-09T00:40:00;1.80;;;0.40;;
24826;SDS011;12910;57.690;11.974;2022-09-09T00:47:54;0.93;;;0.70;;
24826;SDS011;12910;57.690;11.974;2022-09-09T00:55:49;2.23;;;0.40;;
24826;SDS011;12910;57.690;11.974;2022-09-09T00:58:26;0.30;;;0.30;;
24826;SDS011;12910;57.690;11.974;2022-09-09T01:00:56;3.63;;;0.30;;
24826;SDS011;12910;57.690;11.974;2022-09-09T01:03:37;0.80;;;0.40;;
24826;SDS011;12910;57.690;11.974;2022-09-09T01:08:43;0.30;;;0.30;;
24826;SDS011;12910;57.690;11.974;2022-09-09T01:11:25;0.80;;;0.43;;
24826;SDS011;12910;57.690;11.974;2022-09-09T01:16:45;0.40;;;0.40;;
24826;SDS011;12910;57.690;11.974;2022-09-09T01:19:30;1.03;;;0.47;;
24826;SDS011;12910;57.690;11.974;2022-09-09T01:24:47;0.30;;;0.30;;
24826;SDS011;12910;57.690;11.974;2022-09-09T01:27:41;0.40;;;0.40;;
24826;SDS011;12910;57.690;11.974;2022-09-09T01:30:11;0.40;;;0.30;;
24826;SDS011;12910;57.690;11.974;2022-09-09T01:35:06;0.30;;;0.30;;
24826;SDS011;12910;57.690;11.974;2022-09-09T01:37:38;1.70;;;0.40;;
24826;SDS011;12910;57.690;11.974;2022-09-09T01:40:03;0.30;;;0.30;;
24826;SDS011;12910;57.690;11.974;2022-09-09T01:42:29;0.40;;;0.40;;
24826;SDS011;12910;57.690;11.974;2022-09-09T01:44:54;0.40;;;0.40;;
24826;SDS011;12910;57.690;11.974;2022-09-09T01:47:20;0.40;;;0.40;;
24826;SDS011;12910;57.690;11.974;2022-09-09T01:49:45;0.50;;;0.50;;
24826;SDS011;12910;57.690;11.974;2022-09-09T01:52:11;1.03;;;0.27;;
24826;SDS011;12910;57.690;11.974;2022-09-09T01:54:36;1.00;;;0.80;;
24826;SDS011;12910;57.690;11.974;2022-09-09T01:57:18;0.30;;;0.30;;
24826;SDS011;12910;57.690;11.974;2022-09-09T02:10:37;0.30;;;0.30;;
24826;SDS011;12910;57.690;11.974;2022-09-09T02:13:11;0.70;;;0.40;;
24826;SDS011;12910;57.690;11.974;2022-09-09T02:16:00;0.83;;;0.40;;
24826;SDS011;12910;57.690;11.974;2022-09-09T02:18:33;0.50;;;0.40;;
24826;SDS011;12910;57.690;11.974;2022-09-09T02:21:05;0.30;;;0.30;;
24826;SDS011;12910;57.690;11.974;2022-09-09T02:23:32;2.67;;;0.50;;
24826;SDS011;12910;57.690;11.974;2022-09-09T02:25:58;0.40;;;0.40;;
24826;SDS011;12910;57.690;11.974;2022-09-09T02:28:25;0.63;;;0.50;;
24826;SDS011;12910;57.690;11.974;2022-09-09T02:30:54;0.40;;;0.40;;
24826;SDS011;12910;57.690;11.974;2022-09-09T02:33:27;1.23;;;0.60;;
24826;SDS011;12910;57.690;11.974;2022-09-09T02:35:59;0.40;;;0.40;;
24826;SDS011;12910;57.690;11.974;2022-09-09T02:38:28;0.47;;;0.47;;
24826;SDS011;12910;57.690;11.974;2022-09-09T02:40:57;0.80;;;0.50;;
24826;SDS011;12910;57.690;11.974;2022-09-09T02:43:23;0.50;;;0.50;;
24826;SDS011;12910;57.690;11.974;2022-09-09T02:45:56;0.60;;;0.60;;
24826;SDS011;12910;57.690;11.974;2022-09-09T02:48:28;1.27;;;0.50;;
24826;SDS011;12910;57.690;11.974;2022-09-09T02:51:23;0.50;;;0.50;;
24826;SDS011;12910;57.690;11.974;2022-09-09T02:54:04;0.67;;;0.33;;
24826;SDS011;12910;57.690;11.974;2022-09-09T02:56:43;0.37;;;0.37;;
24826;SDS011;12910;57.690;11.974;2022-09-09T02:59:15;0.77;;;0.67;;
24826;SDS011;12910;57.690;11.974;2022-09-09T03:01:41;2.93;;;0.40;;
24826;SDS011;12910;57.690;11.974;2022-09-09T03:04:06;0.40;;;0.40;;
24826;SDS011;12910;57.690;11.974;2022-09-09T03:06:32;0.43;;;0.43;;
24826;SDS011;12910;57.690;11.974;2022-09-09T03:08:58;0.50;;;0.50;;
24826;SDS011;12910;57.690;11.974;2022-09-09T03:11:25;5.83;;;0.47;;
24826;SDS011;12910;57.690;11.974;2022-09-09T03:13:52;0.80;;;0.50;;
24826;SDS011;12910;57.690;11.974;2022-09-09T03:16:18;0.70;;;0.40;;
24826;SDS011;12910;57.690;11.974;2022-09-09T03:18:43;0.70;;;0.50;;
24826;SDS011;12910;57.690;11.974;2022-09-09T03:21:10;1.67;;;0.70;;
24826;SDS011;12910;57.690;11.974;2022-09-09T03:23:36;0.50;;;0.50;;
24826;SDS011;12910;57.690;11.974;2022-09-09T03:26:01;1.60;;;1.00;;
24826;SDS011;12910;57.690;11.974;2022-09-09T03:28:27;0.67;;;0.60;;
24826;SDS011;12910;57.690;11.974;2022-09-09T03:31:05;3.23;;;0.70;;
24826;SDS011;12910;57.690;11.974;2022-09-09T03:33:31;2.17;;;0.60;;
24826;SDS011;12910;57.690;11.974;2022-09-09T03:35:57;0.50;;;0.30;;
24826;SDS011;12910;57.690;11.974;2022-09-09T03:38:25;0.90;;;0.50;;
24826;SDS011;12910;57.690;11.974;2022-09-09T03:40:52;1.70;;;0.43;;
24826;SDS011;12910;57.690;11.974;2022-09-09T03:43:20;2.43;;;0.50;;
24826;SDS011;12910;57.690;11.974;2022-09-09T03:45:47;0.70;;;0.50;;
24826;SDS011;12910;57.690;11.974;2022-09-09T03:48:13;1.93;;;0.50;;
24826;SDS011;12910;57.690;11.974;2022-09-09T03:50:43;6.63;;;0.70;;
24826;SDS011;12910;57.690;11.974;2022-09-09T03:53:13;5.60;;;0.60;;
24826;SDS011;12910;57.690;11.974;2022-09-09T03:55:43;0.47;;;0.47;;
24826;SDS011;12910;57.690;11.974;2022-09-09T03:58:10;0.50;;;0.50;;
24826;SDS011;12910;57.690;11.974;2022-09-09T04:00:36;0.73;;;0.60;;
24826;SDS011;12910;57.690;11.974;2022-09-09T04:03:02;3.20;;;0.60;;
24826;SDS011;12910;57.690;11.974;2022-09-09T04:05:27;1.03;;;0.60;;
24826;SDS011;12910;57.690;11.974;2022-09-09T04:07:52;0.80;;;0.60;;
24826;SDS011;12910;57.690;11.974;2022-09-09T04:10:18;1.30;;;0.53;;
24826;SDS011;12910;57.690;11.974;2022-09-09T04:12:44;0.70;;;0.50;;
24826;SDS011;12910;57.690;11.974;2022-09-09T04:15:09;0.63;;;0.50;;
24826;SDS011;12910;57.690;11.974;2022-09-09T04:17:35;0.43;;;0.43;;
24826;SDS011;12910;57.690;11.974;2022-09-09T04:20:01;0.87;;;0.40;;
24826;SDS011;12910;57.690;11.974;2022-09-09T04:22:27;1.80;;;0.50;;
24826;SDS011;12910;57.690;11.974;2022-09-09T04:24:53;0.83;;;0.43;;
24826;SDS011;12910;57.690;11.974;2022-09-09T04:27:18;0.60;;;0.60;;
24826;SDS011;12910;57.690;11.974;2022-09-09T04:29:43;1.07;;;0.70;;
24826;SDS011;12910;57.690;11.974;2022-09-09T04:32:09;0.50;;;0.50;;
24826;SDS011;12910;57.690;11.974;2022-09-09T04:34:35;0.40;;;0.40;;
24826;SDS011;12910;57.690;11.974;2022-09-09T04:37:00;0.80;;;0.50;;
24826;SDS011;12910;57.690;11.974;2022-09-09T04:39:26;5.20;;;0.60;;
24826;SDS011;12910;57.690;11.974;2022-09-09T04:41:51;1.10;;;0.60;;
24826;SDS011;12910;57.690;11.974;2022-09-09T04:44:16;0.93;;;0.57;;
24826;SDS011;12910;57.690;11.974;2022-09-09T04:46:42;0.87;;;0.67;;
24826;SDS011;12910;57.690;11.974;2022-09-09T04:49:08;1.07;;;0.60;;
24826;SDS011;12910;57.690;11.974;2022-09-09T04:51:33;0.77;;;0.67;;
24826;SDS011;12910;57.690;11.974;2022-09-09T04:53:58;1.00;;;0.80;;
24826;SDS011;12910;57.690;11.974;2022-09-09T04:56:24;2.40;;;0.70;;
24826;SDS011;12910;57.690;11.974;2022-09-09T04:58:52;3.50;;;0.73;;
24826;SDS011;12910;57.690;11.974;2022-09-09T05:01:18;3.03;;;0.60;;
24826;SDS011;12910;57.690;11.974;2022-09-09T05:03:46;1.00;;;0.60;;
24826;SDS011;12910;57.690;11.974;2022-09-09T05:06:16;1.80;;;0.80;;
24826;SDS011;12910;57.690;11.974;2022-09-09T05:08:44;0.63;;;0.60;;
24826;SDS011;12910;57.690;11.974;2022-09-09T05:11:23;2.33;;;0.70;;
24826;SDS011;12910;57.690;11.974;2022-09-09T05:13:49;3.40;;;0.83;;
24826;SDS011;12910;57.690;11.974;2022-09-09T05:16:15;4.77;;;0.77;;
24826;SDS011;12910;57.690;11.974;2022-09-09T05:18:41;0.87;;;0.80;;
24826;SDS011;12910;57.690;11.974;2022-09-09T05:21:08;0.63;;;0.53;;
24826;SDS011;12910;57.690;11.974;2022-09-09T05:23:34;1.07;;;0.53;;
24826;SDS011;12910;57.690;11.974;2022-09-09T05:26:00;0.60;;;0.50;;
24826;SDS011;12910;57.690;11.974;2022-09-09T05:28:26;1.47;;;0.60;;
24826;SDS011;12910;57.690;11.974;2022-09-09T05:30:59;1.03;;;0.80;;
24826;SDS011;12910;57.690;11.974;2022-09-09T05:33:28;2.67;;;1.53;;
24826;SDS011;12910;57.690;11.974;2022-09-09T05:35:55;2.30;;;0.70;;
24826;SDS011;12910;57.690;11.974;2022-09-09T05:38:31;2.93;;;0.60;;
24826;SDS011;12910;57.690;11.974;2022-09-09T05:41:01;0.83;;;0.67;;
24826;SDS011;12910;57.690;11.974;2022-09-09T05:43:27;1.10;;;0.67;;
24826;SDS011;12910;57.690;11.974;2022-09-09T05:46:07;2.50;;;0.70;;
24826;SDS011;12910;57.690;11.974;2022-09-09T05:48:35;1.00;;;0.80;;
24826;SDS011;12910;57.690;11.974;2022-09-09T05:51:08;2.53;;;0.63;;
24826;SDS011;12910;57.690;11.974;2022-09-09T05:53:37;1.57;;;1.23;;
24826;SDS011;12910;57.690;11.974;2022-09-09T05:56:10;6.33;;;0.80;;
24826;SDS011;12910;57.690;11.974;2022-09-09T05:58:41;4.73;;;0.70;;
24826;SDS011;12910;57.690;11.974;2022-09-09T06:01:28;1.90;;;0.70;;
24826;SDS011;12910;57.690;11.974;2022-09-09T06:03:56;2.30;;;0.70;;
24826;SDS011;12910;57.690;11.974;2022-09-09T06:06:25;1.27;;;0.77;;
24826;SDS011;12910;57.690;11.974;2022-09-09T06:08:53;0.80;;;0.80;;
24826;SDS011;12910;57.690;11.974;2022-09-09T06:11:23;3.37;;;1.33;;
24826;SDS011;12910;57.690;11.974;2022-09-09T06:13:51;1.03;;;0.80;;
24826;SDS011;12910;57.690;11.974;2022-09-09T06:16:19;1.97;;;0.73;;
24826;SDS011;12910;57.690;11.974;2022-09-09T06:18:48;1.13;;;0.97;;
24826;SDS011;12910;57.690;11.974;2022-09-09T06:21:16;10.90;;;1.17;;
24826;SDS011;12910;57.690;11.974;2022-09-09T06:23:42;1.20;;;0.90;;
24826;SDS011;12910;57.690;11.974;2022-09-09T06:26:13;1.77;;;0.90;;
24826;SDS011;12910;57.690;11.974;2022-09-09T06:28:46;1.60;;;1.10;;
24826;SDS011;12910;57.690;11.974;2022-09-09T06:31:14;1.67;;;1.20;;
24826;SDS011;12910;57.690;11.974;2022-09-09T06:33:46;2.17;;;0.90;;
24826;SDS011;12910;57.690;11.974;2022-09-09T06:36:19;2.33;;;0.90;;
24826;SDS011;12910;57.690;11.974;2022-09-09T06:38:47;2.47;;;1.43;;
24826;SDS011;12910;57.690;11.974;2022-09-09T06:41:13;1.17;;;1.00;;
24826;SDS011;12910;57.690;11.974;2022-09-09T06:43:40;3.10;;;1.10;;
24826;SDS011;12910;57.690;11.974;2022-09-09T06:46:06;16.77;;;1.40;;
24826;SDS011;12910;57.690;11.974;2022-09-09T06:48:35;1.40;;;1.30;;
24826;SDS011;12910;57.690;11.974;2022-09-09T06:51:04;2.07;;;1.07;;
24826;SDS011;12910;57.690;11.974;2022-09-09T06:53:32;1.87;;;1.30;;
24826;SDS011;12910;57.690;11.974;2022-09-09T06:56:03;1.40;;;1.00;;
24826;SDS011;12910;57.690;11.974;2022-09-09T06:58:43;1.27;;;1.17;;
24826;SDS011;12910;57.690;11.974;2022-09-09T07:01:10;4.70;;;1.60;;
24826;SDS011;12910;57.690;11.974;2022-09-09T07:03:40;6.83;;;1.43;;
24826;SDS011;12910;57.690;11.974;2022-09-09T07:06:13;2.20;;;1.40;;
24826;SDS011;12910;57.690;11.974;2022-09-09T07:08:40;6.43;;;1.53;;
24826;SDS011;12910;57.690;11.974;2022-09-09T07:11:06;7.27;;;1.50;;
24826;SDS011;12910;57.690;11.974;2022-09-09T07:13:33;4.97;;;2.30;;
24826;SDS011;12910;57.690;11.974;2022-09-09T07:16:09;11.80;;;2.13;;
24826;SDS011;12910;57.690;11.974;2022-09-09T07:18:39;1.33;;;0.93;;
24826;SDS011;12910;57.690;11.974;2022-09-09T07:21:05;7.63;;;2.37;;
24826;SDS011;12910;57.690;11.974;2022-09-09T07:23:31;11.70;;;1.20;;
24826;SDS011;12910;57.690;11.974;2022-09-09T07:25:57;1.60;;;1.00;;
24826;SDS011;12910;57.690;11.974;2022-09-09T07:28:23;4.10;;;1.30;;
24826;SDS011;12910;57.690;11.974;2022-09-09T07:30:54;5.93;;;1.40;;
24826;SDS011;12910;57.690;11.974;2022-09-09T07:33:24;12.40;;;1.87;;
24826;SDS011;12910;57.690;11.974;2022-09-09T07:35:51;1.27;;;0.80;;
24826;SDS011;12910;57.690;11.974;2022-09-09T07:38:18;6.17;;;0.80;;
24826;SDS011;12910;57.690;11.974;2022-09-09T07:40:45;13.97;;;1.10;;
24826;SDS011;12910;57.690;11.974;2022-09-09T07:43:11;2.87;;;0.97;;
24826;SDS011;12910;57.690;11.974;2022-09-09T07:45:37;1.83;;;1.13;;
24826;SDS011;12910;57.690;11.974;2022-09-09T07:48:02;1.20;;;0.90;;
24826;SDS011;12910;57.690;11.974;2022-09-09T07:50:28;2.40;;;1.13;;
24826;SDS011;12910;57.690;11.974;2022-09-09T07:52:54;2.23;;;1.30;;
24826;SDS011;12910;57.690;11.974;2022-09-09T07:55:20;4.17;;;0.87;;
24826;SDS011;12910;57.690;11.974;2022-09-09T07:57:50;10.47;;;1.43;;
24826;SDS011;12910;57.690;11.974;2022-09-09T08:00:15;2.00;;;0.87;;
24826;SDS011;12910;57.690;11.974;2022-09-09T08:02:41;5.53;;;1.30;;
24826;SDS011;12910;57.690;11.974;2022-09-09T08:05:06;4.33;;;1.33;;
24826;SDS011;12910;57.690;11.974;2022-09-09T08:07:32;1.60;;;0.90;;
24826;SDS011;12910;57.690;11.974;2022-09-09T08:09:58;1.57;;;1.17;;
24826;SDS011;12910;57.690;11.974;2022-09-09T08:12:26;1.10;;;0.87;;
24826;SDS011;12910;57.690;11.974;2022-09-09T08:14:52;2.50;;;0.97;;
24826;SDS011;12910;57.690;11.974;2022-09-09T08:17:19;1.03;;;0.60;;
24826;SDS011;12910;57.690;11.974;2022-09-09T08:19:45;1.63;;;0.80;;
24826;SDS011;12910;57.690;11.974;2022-09-09T08:22:10;7.93;;;1.20;;
24826;SDS011;12910;57.690;11.974;2022-09-09T08:24:36;4.97;;;0.70;;
24826;SDS011;12910;57.690;11.974;2022-09-09T08:27:01;9.40;;;0.80;;
24826;SDS011;12910;57.690;11.974;2022-09-09T08:29:27;2.83;;;0.87;;
24826;SDS011;12910;57.690;11.974;2022-09-09T08:31:57;2.53;;;1.07;;
24826;SDS011;12910;57.690;11.974;2022-09-09T08:34:23;4.17;;;0.90;;
24826;SDS011;12910;57.690;11.974;2022-09-09T08:36:51;1.30;;;0.90;;
24826;SDS011;12910;57.690;11.974;2022-09-09T08:39:19;2.83;;;0.90;;
24826;SDS011;12910;57.690;11.974;2022-09-09T08:47:31;2.47;;;1.60;;
24826;SDS011;12910;57.690;11.974;2022-09-09T08:50:19;1.67;;;1.00;;
24826;SDS011;12910;57.690;11.974;2022-09-09T08:55:48;3.77;;;0.93;;
24826;SDS011;12910;57.690;11.974;2022-09-09T08:58:18;1.83;;;1.07;;
24826;SDS011;12910;57.690;11.974;2022-09-09T09:06:33;27.80;;;1.20;;
24826;SDS011;12910;57.690;11.974;2022-09-09T09:11:54;2.90;;;1.00;;
24826;SDS011;12910;57.690;11.974;2022-09-09T09:14:26;3.10;;;1.30;;
24826;SDS011;12910;57.690;11.974;2022-09-09T09:19:38;1.73;;;1.13;;
24826;SDS011;12910;57.690;11.974;2022-09-09T09:24:51;7.60;;;1.43;;
24826;SDS011;12910;57.690;11.974;2022-09-09T09:29:54;1.63;;;1.23;;
24826;SDS011;12910;57.690;11.974;2022-09-09T09:32:21;4.47;;;1.00;;
24826;SDS011;12910;57.690;11.974;2022-09-09T09:34:57;8.07;;;0.90;;
24826;SDS011;12910;57.690;11.974;2022-09-09T09:37:27;2.67;;;1.00;;
24826;SDS011;12910;57.690;11.974;2022-09-09T09:39:55;1.47;;;1.10;;
24826;SDS011;12910;57.690;11.974;2022-09-09T09:42:21;1.50;;;0.80;;
24826;SDS011;12910;57.690;11.974;2022-09-09T09:44:47;4.57;;;0.97;;
24826;SDS011;12910;57.690;11.974;2022-09-09T09:49:39;0.97;;;0.80;;
24826;SDS011;12910;57.690;11.974;2022-09-09T09:52:17;5.03;;;1.10;;
24826;SDS011;12910;57.690;11.974;2022-09-09T09:54:47;3.33;;;1.80;;
24826;SDS011;12910;57.690;11.974;2022-09-09T09:57:14;3.73;;;1.03;;
24826;SDS011;12910;57.690;11.974;2022-09-09T09:59:41;1.70;;;1.00;;
24826;SDS011;12910;57.690;11.974;2022-09-09T10:05:03;7.50;;;1.20;;
24826;SDS011;12910;57.690;11.974;2022-09-09T10:07:31;1.80;;;1.17;;
24826;SDS011;12910;57.690;11.974;2022-09-09T10:09:58;2.60;;;0.90;;
24826;SDS011;12910;57.690;11.974;2022-09-09T10:41:48;3.13;;;1.10;;
24826;SDS011;12910;57.690;11.974;2022-09-09T10:44:19;4.20;;;1.40;;
24826;SDS011;12910;57.690;11.974;2022-09-09T10:49:37;4.90;;;1.53;;
24826;SDS011;12910;57.690;11.974;2022-09-09T10:54:56;2.33;;;1.57;;
24826;SDS011;12910;57.690;11.974;2022-09-09T10:57:29;3.03;;;1.23;;
24826;SDS011;12910;57.690;11.974;2022-09-09T11:00:22;3.00;;;1.30;;
24826;SDS011;12910;57.690;11.974;2022-09-09T11:02:59;10.10;;;1.50;;
24826;SDS011;12910;57.690;11.974;2022-09-09T11:08:12;1.43;;;1.00;;
24826;SDS011;12910;57.690;11.974;2022-09-09T11:10:56;2.77;;;1.50;;
24826;SDS011;12910;57.690;11.974;2022-09-09T11:13:41;3.03;;;1.30;;
24826;SDS011;12910;57.690;11.974;2022-09-09T11:19:00;1.60;;;1.20;;
24826;SDS011;12910;57.690;11.974;2022-09-09T11:21:32;8.73;;;1.83;;
24826;SDS011;12910;57.690;11.974;2022-09-09T11:24:29;1.70;;;0.90;;
24826;SDS011;12910;57.690;11.974;2022-09-09T11:27:24;7.40;;;1.87;;
24826;SDS011;12910;57.690;11.974;2022-09-09T11:40:25;1.53;;;1.30;;
24826;SDS011;12910;57.690;11.974;2022-09-09T11:45:39;6.07;;;1.73;;
24826;SDS011;12910;57.690;11.974;2022-09-09T11:51:08;2.90;;;1.33;;
24826;SDS011;12910;57.690;11.974;2022-09-09T11:53:47;1.57;;;1.40;;
24826;SDS011;12910;57.690;11.974;2022-09-09T11:59:25;4.97;;;1.27;;
24826;SDS011;12910;57.690;11.974;2022-09-09T12:01:57;3.67;;;1.80;;
24826;SDS011;12910;57.690;11.974;2022-09-09T12:06:58;2.03;;;1.40;;
24826;SDS011;12910;57.690;11.974;2022-09-09T12:09:43;3.50;;;1.40;;
24826;SDS011;12910;57.690;11.974;2022-09-09T12:17:20;5.90;;;1.90;;
24826;SDS011;12910;57.690;11.974;2022-09-09T12:19:48;3.07;;;1.53;;
24826;SDS011;12910;57.690;11.974;2022-09-09T12:22:38;3.60;;;1.60;;
24826;SDS011;12910;57.690;11.974;2022-09-09T12:31:10;5.43;;;1.43;;
24826;SDS011;12910;57.690;11.974;2022-09-09T12:33:42;6.10;;;1.60;;
24826;SDS011;12910;57.690;11.974;2022-09-09T12:36:18;3.60;;;1.27;;
24826;SDS011;12910;57.690;11.974;2022-09-09T12:38:46;2.20;;;1.80;;
24826;SDS011;12910;57.690;11.974;2022-09-09T12:41:18;2.97;;;1.77;;
24826;SDS011;12910;57.690;11.974;2022-09-09T12:43:49;2.87;;;1.97;;
24826;SDS011;12910;57.690;11.974;2022-09-09T12:46:58;2.57;;;2.37;;
24826;SDS011;12910;57.690;11.974;2022-09-09T12:49:23;10.23;;;3.47;;
24826;SDS011;12910;57.690;11.974;2022-09-09T12:51:52;1.90;;;1.20;;
24826;SDS011;12910;57.690;11.974;2022-09-09T12:54:19;2.70;;;1.73;;
24826;SDS011;12910;57.690;11.974;2022-09-09T12:56:45;2.63;;;1.70;;
24826;SDS011;12910;57.690;11.974;2022-09-09T12:59:23;1.70;;;1.53;;
24826;SDS011;12910;57.690;11.974;2022-09-09T13:01:57;3.60;;;1.73;;
24826;SDS011;12910;57.690;11.974;2022-09-09T13:04:23;2.03;;;1.30;;
24826;SDS011;12910;57.690;11.974;2022-09-09T13:06:49;9.90;;;1.93;;
24826;SDS011;12910;57.690;11.974;2022-09-09T13:09:14;5.17;;;1.70;;
24826;SDS011;12910;57.690;11.974;2022-09-09T13:11:44;5.00;;;1.40;;
24826;SDS011;12910;57.690;11.974;2022-09-09T13:14:19;3.93;;;1.50;;
24826;SDS011;12910;57.690;11.974;2022-09-09T13:16:58;2.17;;;1.53;;
24826;SDS011;12910;57.690;11.974;2022-09-09T13:19:25;7.67;;;2.00;;
24826;SDS011;12910;57.690;11.974;2022-09-09T13:21:54;4.23;;;2.17;;
24826;SDS011;12910;57.690;11.974;2022-09-09T13:24:41;1.93;;;1.70;;
24826;SDS011;12910;57.690;11.974;2022-09-09T13:27:23;3.00;;;2.70;;
24826;SDS011;12910;57.690;11.974;2022-09-09T13:29:53;5.87;;;2.00;;
24826;SDS011;12910;57.690;11.974;2022-09-09T13:32:20;3.10;;;1.53;;
24826;SDS011;12910;57.690;11.974;2022-09-09T13:34:54;3.27;;;1.60;;
24826;SDS011;12910;57.690;11.974;2022-09-09T13:40:03;3.00;;;1.60;;
24826;SDS011;12910;57.690;11.974;2022-09-09T13:42:32;5.93;;;2.10;;
24826;SDS011;12910;57.690;11.974;2022-09-09T13:45:02;2.90;;;1.33;;
24826;SDS011;12910;57.690;11.974;2022-09-09T13:47:35;6.20;;;1.57;;
24826;SDS011;12910;57.690;11.974;2022-09-09T13:50:20;6.17;;;1.50;;
24826;SDS011;12910;57.690;11.974;2022-09-09T13:52:52;1.53;;;1.37;;
24826;SDS011;12910;57.690;11.974;2022-09-09T13:55:19;2.30;;;1.67;;
24826;SDS011;12910;57.690;11.974;2022-09-09T13:58:05;2.43;;;1.50;;
24826;SDS011;12910;57.690;11.974;2022-09-09T14:00:31;2.97;;;1.40;;
24826;SDS011;12910;57.690;11.974;2022-09-09T14:02:59;2.13;;;1.80;;
24826;SDS011;12910;57.690;11.974;2022-09-09T14:05:27;2.77;;;1.60;;
24826;SDS011;12910;57.690;11.974;2022-09-09T14:07:57;1.50;;;1.30;;
24826;SDS011;12910;57.690;11.974;2022-09-09T14:10:22;2.50;;;1.67;;
24826;SDS011;12910;57.690;11.974;2022-09-09T14:12:48;1.53;;;1.43;;
24826;SDS011;12910;57.690;11.974;2022-09-09T14:15:13;3.63;;;2.00;;
24826;SDS011;12910;57.690;11.974;2022-09-09T14:17:39;2.40;;;1.80;;
24826;SDS011;12910;57.690;11.974;2022-09-09T14:20:05;1.90;;;1.30;;
24826;SDS011;12910;57.690;11.974;2022-09-09T14:22:32;6.37;;;1.43;;
24826;SDS011;12910;57.690;11.974;2022-09-09T14:24:58;4.90;;;2.17;;
24826;SDS011;12910;57.690;11.974;2022-09-09T14:27:23;3.30;;;1.30;;
24826;SDS011;12910;57.690;11.974;2022-09-09T14:29:50;2.10;;;1.67;;
24826;SDS011;12910;57.690;11.974;2022-09-09T14:32:16;4.53;;;1.20;;
24826;SDS011;12910;57.690;11.974;2022-09-09T14:34:41;2.30;;;1.43;;
24826;SDS011;12910;57.690;11.974;2022-09-09T14:37:06;1.80;;;1.13;;
24826;SDS011;12910;57.690;11.974;2022-09-09T14:39:32;2.70;;;1.53;;
24826;SDS011;12910;57.690;11.974;2022-09-09T14:41:57;1.23;;;1.13;;
24826;SDS011;12910;57.690;11.974;2022-09-09T14:44:23;1.27;;;1.13;;
24826;SDS011;12910;57.690;11.974;2022-09-09T14:46:48;3.57;;;1.37;;
24826;SDS011;12910;57.690;11.974;2022-09-09T14:49:18;3.10;;;1.63;;
24826;SDS011;12910;57.690;11.974;2022-09-09T14:51:43;3.03;;;1.10;;
24826;SDS011;12910;57.690;11.974;2022-09-09T14:54:08;2.17;;;1.40;;
24826;SDS011;12910;57.690;11.974;2022-09-09T14:56:34;1.43;;;1.23;;
24826;SDS011;12910;57.690;11.974;2022-09-09T14:58:59;0.90;;;0.83;;
24826;SDS011;12910;57.690;11.974;2022-09-09T15:01:25;1.10;;;1.00;;
24826;SDS011;12910;57.690;11.974;2022-09-09T15:04:02;1.00;;;0.80;;
24826;SDS011;12910;57.690;11.974;2022-09-09T15:06:30;2.30;;;1.00;;
24826;SDS011;12910;57.690;11.974;2022-09-09T15:08:58;1.10;;;0.80;;
24826;SDS011;12910;57.690;11.974;2022-09-09T15:11:29;0.70;;;0.70;;
24826;SDS011;12910;57.690;11.974;2022-09-09T15:13:57;1.20;;;1.10;;
24826;SDS011;12910;57.690;11.974;2022-09-09T15:16:24;1.03;;;0.90;;
24826;SDS011;12910;57.690;11.974;2022-09-09T15:18:51;3.17;;;0.80;;
24826;SDS011;12910;57.690;11.974;2022-09-09T15:21:22;0.70;;;0.70;;
24826;SDS011;12910;57.690;11.974;2022-09-09T15:23:49;1.47;;;0.80;;
24826;SDS011;12910;57.690;11.974;2022-09-09T15:26:15;1.27;;;1.17;;
24826;SDS011;12910;57.690;11.974;2022-09-09T15:28:42;1.20;;;0.80;;
24826;SDS011;12910;57.690;11.974;2022-09-09T15:31:12;1.47;;;0.97;;
24826;SDS011;12910;57.690;11.974;2022-09-09T15:33:46;1.47;;;1.37;;
24826;SDS011;12910;57.690;11.974;2022-09-09T15:38:41;1.00;;;0.90;;
24826;SDS011;12910;57.690;11.974;2022-09-09T15:41:06;1.23;;;0.83;;
24826;SDS011;12910;57.690;11.974;2022-09-09T15:43:32;1.63;;;0.97;;
24826;SDS011;12910;57.690;11.974;2022-09-09T15:45:59;1.50;;;1.37;;
24826;SDS011;12910;57.690;11.974;2022-09-09T15:48:52;2.30;;;1.40;;
24826;SDS011;12910;57.690;11.974;2022-09-09T15:51:19;1.37;;;1.27;;
24826;SDS011;12910;57.690;11.974;2022-09-09T15:53:45;1.10;;;1.00;;
24826;SDS011;12910;57.690;11.974;2022-09-09T15:56:10;1.80;;;1.47;;
24826;SDS011;12910;57.690;11.974;2022-09-09T15:58:36;1.40;;;1.30;;
24826;SDS011;12910;57.690;11.974;2022-09-09T16:01:11;1.33;;;1.17;;
24826;SDS011;12910;57.690;11.974;2022-09-09T16:03:38;1.50;;;1.10;;
24826;SDS011;12910;57.690;11.974;2022-09-09T16:06:07;0.93;;;0.93;;
24826;SDS011;12910;57.690;11.974;2022-09-09T16:08:34;1.93;;;1.30;;
24826;SDS011;12910;57.690;11.974;2022-09-09T16:11:35;1.77;;;1.07;;
24826;SDS011;12910;57.690;11.974;2022-09-09T16:13:56;1.17;;;1.03;;
24826;SDS011;12910;57.690;11.974;2022-09-09T16:16:23;1.43;;;1.23;;
24826;SDS011;12910;57.690;11.974;2022-09-09T16:18:51;1.20;;;1.10;;
24826;SDS011;12910;57.690;11.974;2022-09-09T16:21:19;1.63;;;0.87;;
24826;SDS011;12910;57.690;11.974;2022-09-09T16:23:46;1.20;;;0.93;;
24826;SDS011;12910;57.690;11.974;2022-09-09T16:26:14;1.40;;;1.30;;
24826;SDS011;12910;57.690;11.974;2022-09-09T16:28:41;1.23;;;0.67;;
24826;SDS011;12910;57.690;11.974;2022-09-09T16:31:07;1.47;;;1.00;;
24826;SDS011;12910;57.690;11.974;2022-09-09T16:33:35;1.30;;;0.70;;
24826;SDS011;12910;57.690;11.974;2022-09-09T16:36:04;1.80;;;0.87;;
24826;SDS011;12910;57.690;11.974;2022-09-09T16:38:31;0.63;;;0.63;;
24826;SDS011;12910;57.690;11.974;2022-09-09T16:41:01;2.93;;;1.10;;
24826;SDS011;12910;57.690;11.974;2022-09-09T16:43:30;1.27;;;0.70;;
24826;SDS011;12910;57.690;11.974;2022-09-09T16:45:55;0.70;;;0.57;;
24826;SDS011;12910;57.690;11.974;2022-09-09T16:48:21;0.60;;;0.60;;
24826;SDS011;12910;57.690;11.974;2022-09-09T16:50:46;0.70;;;0.70;;
24826;SDS011;12910;57.690;11.974;2022-09-09T16:53:11;0.57;;;0.40;;
24826;SDS011;12910;57.690;11.974;2022-09-09T16:55:38;0.60;;;0.60;;
24826;SDS011;12910;57.690;11.974;2022-09-09T16:58:05;0.50;;;0.50;;
24826;SDS011;12910;57.690;11.974;2022-09-09T17:00:30;0.50;;;0.50;;
24826;SDS011;12910;57.690;11.974;2022-09-09T17:02:56;2.13;;;0.70;;
24826;SDS011;12910;57.690;11.974;2022-09-09T17:05:21;0.70;;;0.67;;
24826;SDS011;12910;57.690;11.974;2022-09-09T17:07:48;0.50;;;0.50;;
24826;SDS011;12910;57.690;11.974;2022-09-09T17:10:13;0.60;;;0.60;;
24826;SDS011;12910;57.690;11.974;2022-09-09T17:12:39;1.00;;;0.63;;
24826;SDS011;12910;57.690;11.974;2022-09-09T17:15:05;0.80;;;0.80;;